sensor_id;sensor_type;location;lat;lon;timestamp;P1;durP1;ratioP1;P2;durP2;ratioP2
61642;SDS011;47551;52.506;4.678;2023-08-17T00:00:07;6.68;;;4.13;;
61642;SDS011;47551;52.506;4.678;2023-08-17T00:00:34;8.35;;;3.92;;
61642;SDS011;47551;52.506;4.678;2023-08-17T00:00:54;7.63;;;3.97;;
61642;SDS011;47551;52.506;4.678;2023-08-17T00:01:15;6.80;;;3.65;;
61642;SDS011;47551;52.506;4.678;2023-08-17T00:01:35;7.63;;;4.03;;
61642;SDS011;47551;52.506;4.678;2023-08-17T00:01:55;7.13;;;3.70;;
61642;SDS011;47551;52.506;4.678;2023-08-17T00:02:15;7.30;;;3.92;;
61642;SDS011;47551;52.506;4.678;2023-08-17T00:02:36;7.47;;;4.00;;
61642;SDS011;47551;52.506;4.678;2023-08-17T00:02:57;6.78;;;3.78;;
61642;SDS011;47551;52.506;4.678;2023-08-17T00:03:20;6.53;;;4.00;;
61642;SDS011;47551;52.506;4.678;2023-08-17T00:03:41;6.80;;;3.97;;
61642;SDS011;47551;52.506;4.678;2023-08-17T00:04:01;7.47;;;4.30;;
61642;SDS011;47551;52.506;4.678;2023-08-17T00:04:21;8.98;;;4.25;;
61642;SDS011;47551;52.506;4.678;2023-08-17T00:04:42;7.70;;;4.10;;
61642;SDS011;47551;52.506;4.678;2023-08-17T00:05:05;6.57;;;3.90;;
61642;SDS011;47551;52.506;4.678;2023-08-17T00:05:29;5.93;;;3.85;;
61642;SDS011;47551;52.506;4.678;2023-08-17T00:05:50;7.22;;;3.95;;
61642;SDS011;47551;52.506;4.678;2023-08-17T00:06:10;7.93;;;3.93;;
61642;SDS011;47551;52.506;4.678;2023-08-17T00:06:30;7.27;;;4.03;;
61642;SDS011;47551;52.506;4.678;2023-08-17T00:06:51;7.40;;;4.07;;
61642;SDS011;47551;52.506;4.678;2023-08-17T00:07:11;5.57;;;3.75;;
61642;SDS011;47551;52.506;4.678;2023-08-17T00:07:32;7.00;;;3.97;;
61642;SDS011;47551;52.506;4.678;2023-08-17T00:07:52;8.18;;;3.90;;
61642;SDS011;47551;52.506;4.678;2023-08-17T00:08:13;8.07;;;3.95;;
61642;SDS011;47551;52.506;4.678;2023-08-17T00:08:33;7.40;;;4.07;;
61642;SDS011;47551;52.506;4.678;2023-08-17T00:08:53;7.80;;;4.20;;
61642;SDS011;47551;52.506;4.678;2023-08-17T00:09:14;8.88;;;4.30;;
61642;SDS011;47551;52.506;4.678;2023-08-17T00:09:34;9.37;;;4.20;;
61642;SDS011;47551;52.506;4.678;2023-08-17T00:09:54;8.77;;;4.10;;
61642;SDS011;47551;52.506;4.678;2023-08-17T00:10:15;8.57;;;4.03;;
61642;SDS011;47551;52.506;4.678;2023-08-17T00:10:35;7.67;;;4.10;;
61642;SDS011;47551;52.506;4.678;2023-08-17T00:10:58;5.88;;;4.10;;
61642;SDS011;47551;52.506;4.678;2023-08-17T00:11:19;6.40;;;4.00;;
61642;SDS011;47551;52.506;4.678;2023-08-17T00:11:41;7.68;;;3.92;;
61642;SDS011;47551;52.506;4.678;2023-08-17T00:12:02;6.50;;;3.72;;
61642;SDS011;47551;52.506;4.678;2023-08-17T00:12:22;6.97;;;4.10;;
61642;SDS011;47551;52.506;4.678;2023-08-17T00:12:43;8.23;;;4.00;;
61642;SDS011;47551;52.506;4.678;2023-08-17T00:13:03;8.07;;;4.13;;
61642;SDS011;47551;52.506;4.678;2023-08-17T00:13:24;7.65;;;4.15;;
61642;SDS011;47551;52.506;4.678;2023-08-17T00:13:44;7.27;;;4.17;;
61642;SDS011;47551;52.506;4.678;2023-08-17T00:14:05;6.53;;;4.07;;
61642;SDS011;47551;52.506;4.678;2023-08-17T00:14:25;8.85;;;3.97;;
61642;SDS011;47551;52.506;4.678;2023-08-17T00:14:46;8.33;;;4.00;;
61642;SDS011;47551;52.506;4.678;2023-08-17T00:15:09;7.40;;;4.00;;
61642;SDS011;47551;52.506;4.678;2023-08-17T00:15:29;7.45;;;4.03;;
61642;SDS011;47551;52.506;4.678;2023-08-17T00:15:52;7.23;;;3.97;;
61642;SDS011;47551;52.506;4.678;2023-08-17T00:16:13;7.55;;;4.20;;
61642;SDS011;47551;52.506;4.678;2023-08-17T00:16:33;8.10;;;4.20;;
61642;SDS011;47551;52.506;4.678;2023-08-17T00:16:56;8.15;;;4.30;;
61642;SDS011;47551;52.506;4.678;2023-08-17T00:17:16;8.40;;;4.10;;
61642;SDS011;47551;52.506;4.678;2023-08-17T00:17:37;8.23;;;4.10;;
61642;SDS011;47551;52.506;4.678;2023-08-17T00:17:57;8.23;;;4.40;;
61642;SDS011;47551;52.506;4.678;2023-08-17T00:18:20;6.47;;;3.70;;
61642;SDS011;47551;52.506;4.678;2023-08-17T00:18:41;6.20;;;3.90;;
61642;SDS011;47551;52.506;4.678;2023-08-17T00:19:01;7.50;;;4.20;;
61642;SDS011;47551;52.506;4.678;2023-08-17T00:19:22;8.02;;;4.18;;
61642;SDS011;47551;52.506;4.678;2023-08-17T00:19:48;6.47;;;3.95;;
61642;SDS011;47551;52.506;4.678;2023-08-17T00:20:10;8.20;;;4.10;;
61642;SDS011;47551;52.506;4.678;2023-08-17T00:20:33;8.70;;;4.28;;
61642;SDS011;47551;52.506;4.678;2023-08-17T00:20:53;8.03;;;4.37;;
61642;SDS011;47551;52.506;4.678;2023-08-17T00:21:14;7.40;;;3.80;;
61642;SDS011;47551;52.506;4.678;2023-08-17T00:21:34;6.90;;;3.80;;
61642;SDS011;47551;52.506;4.678;2023-08-17T00:21:55;7.50;;;4.00;;
61642;SDS011;47551;52.506;4.678;2023-08-17T00:22:16;7.17;;;3.90;;
61642;SDS011;47551;52.506;4.678;2023-08-17T00:22:36;7.20;;;3.87;;
61642;SDS011;47551;52.506;4.678;2023-08-17T00:22:56;6.97;;;3.80;;
61642;SDS011;47551;52.506;4.678;2023-08-17T00:23:17;6.20;;;3.60;;
61642;SDS011;47551;52.506;4.678;2023-08-17T00:23:37;7.13;;;3.70;;
61642;SDS011;47551;52.506;4.678;2023-08-17T00:23:58;7.63;;;4.07;;
61642;SDS011;47551;52.506;4.678;2023-08-17T00:24:18;7.10;;;3.95;;
61642;SDS011;47551;52.506;4.678;2023-08-17T00:24:39;7.10;;;4.20;;
61642;SDS011;47551;52.506;4.678;2023-08-17T00:25:02;6.68;;;3.85;;
61642;SDS011;47551;52.506;4.678;2023-08-17T00:25:27;7.93;;;4.22;;
61642;SDS011;47551;52.506;4.678;2023-08-17T00:25:47;7.25;;;4.38;;
61642;SDS011;47551;52.506;4.678;2023-08-17T00:26:08;6.83;;;3.70;;
61642;SDS011;47551;52.506;4.678;2023-08-17T00:26:28;8.18;;;4.05;;
61642;SDS011;47551;52.506;4.678;2023-08-17T00:26:51;6.95;;;4.00;;
61642;SDS011;47551;52.506;4.678;2023-08-17T00:27:12;8.17;;;4.00;;
61642;SDS011;47551;52.506;4.678;2023-08-17T00:27:32;8.23;;;4.22;;
61642;SDS011;47551;52.506;4.678;2023-08-17T00:27:53;7.40;;;4.05;;
61642;SDS011;47551;52.506;4.678;2023-08-17T00:28:13;7.00;;;3.90;;
61642;SDS011;47551;52.506;4.678;2023-08-17T00:28:34;6.35;;;3.90;;
61642;SDS011;47551;52.506;4.678;2023-08-17T00:28:57;7.22;;;4.00;;
61642;SDS011;47551;52.506;4.678;2023-08-17T00:29:18;6.50;;;3.80;;
61642;SDS011;47551;52.506;4.678;2023-08-17T00:29:38;7.03;;;3.83;;
61642;SDS011;47551;52.506;4.678;2023-08-17T00:29:58;7.23;;;3.97;;
61642;SDS011;47551;52.506;4.678;2023-08-17T00:30:19;8.03;;;4.07;;
61642;SDS011;47551;52.506;4.678;2023-08-17T00:30:39;9.17;;;4.10;;
61642;SDS011;47551;52.506;4.678;2023-08-17T00:31:00;8.53;;;4.10;;
61642;SDS011;47551;52.506;4.678;2023-08-17T00:31:20;6.57;;;3.78;;
61642;SDS011;47551;52.506;4.678;2023-08-17T00:31:41;6.30;;;3.90;;
61642;SDS011;47551;52.506;4.678;2023-08-17T00:32:02;6.80;;;3.90;;
61642;SDS011;47551;52.506;4.678;2023-08-17T00:32:23;7.32;;;4.13;;
61642;SDS011;47551;52.506;4.678;2023-08-17T00:32:43;6.77;;;4.10;;
61642;SDS011;47551;52.506;4.678;2023-08-17T00:33:03;7.38;;;4.18;;
61642;SDS011;47551;52.506;4.678;2023-08-17T00:33:24;8.20;;;4.33;;
61642;SDS011;47551;52.506;4.678;2023-08-17T00:33:44;8.60;;;4.30;;
61642;SDS011;47551;52.506;4.678;2023-08-17T00:34:05;7.13;;;4.20;;
61642;SDS011;47551;52.506;4.678;2023-08-17T00:34:25;6.90;;;4.05;;
61642;SDS011;47551;52.506;4.678;2023-08-17T00:34:48;6.60;;;3.65;;
61642;SDS011;47551;52.506;4.678;2023-08-17T00:35:09;7.03;;;3.70;;
61642;SDS011;47551;52.506;4.678;2023-08-17T00:35:29;7.32;;;3.92;;
61642;SDS011;47551;52.506;4.678;2023-08-17T00:35:49;8.57;;;4.20;;
61642;SDS011;47551;52.506;4.678;2023-08-17T00:36:10;6.93;;;4.10;;
61642;SDS011;47551;52.506;4.678;2023-08-17T00:36:30;7.18;;;4.18;;
61642;SDS011;47551;52.506;4.678;2023-08-17T00:36:50;6.87;;;4.07;;
61642;SDS011;47551;52.506;4.678;2023-08-17T00:37:11;7.10;;;4.30;;
61642;SDS011;47551;52.506;4.678;2023-08-17T00:37:34;7.75;;;4.13;;
61642;SDS011;47551;52.506;4.678;2023-08-17T00:37:54;8.35;;;4.28;;
61642;SDS011;47551;52.506;4.678;2023-08-17T00:38:18;7.70;;;3.97;;
61642;SDS011;47551;52.506;4.678;2023-08-17T00:38:38;7.43;;;4.03;;
61642;SDS011;47551;52.506;4.678;2023-08-17T00:38:58;8.13;;;4.20;;
61642;SDS011;47551;52.506;4.678;2023-08-17T00:39:19;7.35;;;4.00;;
61642;SDS011;47551;52.506;4.678;2023-08-17T00:39:40;7.27;;;4.00;;
61642;SDS011;47551;52.506;4.678;2023-08-17T00:40:06;7.13;;;4.07;;
61642;SDS011;47551;52.506;4.678;2023-08-17T00:40:27;8.27;;;4.13;;
61642;SDS011;47551;52.506;4.678;2023-08-17T00:40:47;8.37;;;4.13;;
61642;SDS011;47551;52.506;4.678;2023-08-17T00:41:08;7.15;;;3.80;;
61642;SDS011;47551;52.506;4.678;2023-08-17T00:41:28;7.67;;;3.90;;
61642;SDS011;47551;52.506;4.678;2023-08-17T00:41:48;7.07;;;3.85;;
61642;SDS011;47551;52.506;4.678;2023-08-17T00:42:09;7.93;;;4.20;;
61642;SDS011;47551;52.506;4.678;2023-08-17T00:42:30;8.10;;;4.28;;
61642;SDS011;47551;52.506;4.678;2023-08-17T00:42:50;7.33;;;3.70;;
61642;SDS011;47551;52.506;4.678;2023-08-17T00:43:11;7.75;;;4.03;;
61642;SDS011;47551;52.506;4.678;2023-08-17T00:43:31;8.48;;;4.03;;
61642;SDS011;47551;52.506;4.678;2023-08-17T00:43:54;6.53;;;4.00;;
61642;SDS011;47551;52.506;4.678;2023-08-17T00:44:15;6.13;;;4.10;;
61642;SDS011;47551;52.506;4.678;2023-08-17T00:44:35;7.63;;;4.40;;
61642;SDS011;47551;52.506;4.678;2023-08-17T00:44:55;8.43;;;4.03;;
61642;SDS011;47551;52.506;4.678;2023-08-17T00:45:16;8.57;;;4.00;;
61642;SDS011;47551;52.506;4.678;2023-08-17T00:45:37;7.00;;;4.10;;
61642;SDS011;47551;52.506;4.678;2023-08-17T00:45:58;7.53;;;3.90;;
61642;SDS011;47551;52.506;4.678;2023-08-17T00:46:18;7.53;;;3.72;;
61642;SDS011;47551;52.506;4.678;2023-08-17T00:46:40;7.88;;;4.10;;
61642;SDS011;47551;52.506;4.678;2023-08-17T00:47:00;7.70;;;3.90;;
61642;SDS011;47551;52.506;4.678;2023-08-17T00:47:21;7.67;;;3.97;;
61642;SDS011;47551;52.506;4.678;2023-08-17T00:47:41;6.75;;;3.95;;
61642;SDS011;47551;52.506;4.678;2023-08-17T00:48:02;6.80;;;4.00;;
61642;SDS011;47551;52.506;4.678;2023-08-17T00:48:27;8.02;;;4.00;;
61642;SDS011;47551;52.506;4.678;2023-08-17T00:48:49;7.32;;;4.00;;
61642;SDS011;47551;52.506;4.678;2023-08-17T00:49:10;6.10;;;3.78;;
61642;SDS011;47551;52.506;4.678;2023-08-17T00:49:31;7.80;;;3.88;;
61642;SDS011;47551;52.506;4.678;2023-08-17T00:49:52;7.93;;;4.05;;
61642;SDS011;47551;52.506;4.678;2023-08-17T00:50:13;7.65;;;3.97;;
61642;SDS011;47551;52.506;4.678;2023-08-17T00:50:35;6.50;;;4.00;;
61642;SDS011;47551;52.506;4.678;2023-08-17T00:50:56;7.35;;;3.92;;
61642;SDS011;47551;52.506;4.678;2023-08-17T00:51:18;7.40;;;3.80;;
61642;SDS011;47551;52.506;4.678;2023-08-17T00:51:40;7.93;;;4.18;;
61642;SDS011;47551;52.506;4.678;2023-08-17T00:52:01;7.88;;;4.22;;
61642;SDS011;47551;52.506;4.678;2023-08-17T00:52:25;8.35;;;4.20;;
61642;SDS011;47551;52.506;4.678;2023-08-17T00:52:46;7.15;;;4.07;;
61642;SDS011;47551;52.506;4.678;2023-08-17T00:53:06;7.33;;;4.37;;
61642;SDS011;47551;52.506;4.678;2023-08-17T00:53:27;6.47;;;4.28;;
61642;SDS011;47551;52.506;4.678;2023-08-17T00:53:51;7.85;;;4.22;;
61642;SDS011;47551;52.506;4.678;2023-08-17T00:54:25;8.27;;;4.20;;
61642;SDS011;47551;52.506;4.678;2023-08-17T00:54:47;6.63;;;3.78;;
61642;SDS011;47551;52.506;4.678;2023-08-17T00:55:07;8.63;;;4.07;;
61642;SDS011;47551;52.506;4.678;2023-08-17T00:55:29;8.70;;;4.60;;
61642;SDS011;47551;52.506;4.678;2023-08-17T00:55:53;7.85;;;4.15;;
61642;SDS011;47551;52.506;4.678;2023-08-17T00:56:13;8.23;;;4.07;;
61642;SDS011;47551;52.506;4.678;2023-08-17T00:56:34;7.45;;;4.05;;
61642;SDS011;47551;52.506;4.678;2023-08-17T00:56:56;7.78;;;3.90;;
61642;SDS011;47551;52.506;4.678;2023-08-17T00:57:23;8.93;;;3.80;;
61642;SDS011;47551;52.506;4.678;2023-08-17T00:57:44;8.40;;;4.10;;
61642;SDS011;47551;52.506;4.678;2023-08-17T00:58:04;6.68;;;3.90;;
61642;SDS011;47551;52.506;4.678;2023-08-17T00:58:25;7.55;;;4.05;;
61642;SDS011;47551;52.506;4.678;2023-08-17T00:58:46;8.20;;;4.22;;
61642;SDS011;47551;52.506;4.678;2023-08-17T00:59:07;7.38;;;4.05;;
61642;SDS011;47551;52.506;4.678;2023-08-17T00:59:27;8.43;;;4.10;;
61642;SDS011;47551;52.506;4.678;2023-08-17T00:59:48;8.38;;;4.25;;
61642;SDS011;47551;52.506;4.678;2023-08-17T01:00:13;7.93;;;3.97;;
61642;SDS011;47551;52.506;4.678;2023-08-17T01:00:33;6.68;;;3.80;;
61642;SDS011;47551;52.506;4.678;2023-08-17T01:00:54;7.30;;;4.05;;
61642;SDS011;47551;52.506;4.678;2023-08-17T01:01:19;7.50;;;4.07;;
61642;SDS011;47551;52.506;4.678;2023-08-17T01:01:42;8.70;;;3.67;;
61642;SDS011;47551;52.506;4.678;2023-08-17T01:02:03;7.95;;;3.88;;
61642;SDS011;47551;52.506;4.678;2023-08-17T01:02:24;7.10;;;3.85;;
61642;SDS011;47551;52.506;4.678;2023-08-17T01:02:45;6.85;;;3.95;;
61642;SDS011;47551;52.506;4.678;2023-08-17T01:03:06;7.05;;;4.00;;
61642;SDS011;47551;52.506;4.678;2023-08-17T01:03:28;8.35;;;4.00;;
61642;SDS011;47551;52.506;4.678;2023-08-17T01:03:50;7.55;;;4.05;;
61642;SDS011;47551;52.506;4.678;2023-08-17T01:04:10;7.67;;;4.30;;
61642;SDS011;47551;52.506;4.678;2023-08-17T01:04:31;7.78;;;4.20;;
61642;SDS011;47551;52.506;4.678;2023-08-17T01:04:53;7.25;;;4.22;;
61642;SDS011;47551;52.506;4.678;2023-08-17T01:05:13;7.75;;;4.00;;
61642;SDS011;47551;52.506;4.678;2023-08-17T01:05:33;7.97;;;4.30;;
61642;SDS011;47551;52.506;4.678;2023-08-17T01:05:54;8.93;;;4.30;;
61642;SDS011;47551;52.506;4.678;2023-08-17T01:06:14;8.60;;;4.40;;
61642;SDS011;47551;52.506;4.678;2023-08-17T01:06:35;6.90;;;4.43;;
61642;SDS011;47551;52.506;4.678;2023-08-17T01:06:55;7.13;;;4.50;;
61642;SDS011;47551;52.506;4.678;2023-08-17T01:07:21;8.75;;;4.50;;
61642;SDS011;47551;52.506;4.678;2023-08-17T01:07:41;10.07;;;4.22;;
61642;SDS011;47551;52.506;4.678;2023-08-17T01:08:02;7.47;;;4.20;;
61642;SDS011;47551;52.506;4.678;2023-08-17T01:08:22;7.05;;;4.10;;
61642;SDS011;47551;52.506;4.678;2023-08-17T01:08:44;8.45;;;4.43;;
61642;SDS011;47551;52.506;4.678;2023-08-17T01:09:05;8.43;;;4.45;;
61642;SDS011;47551;52.506;4.678;2023-08-17T01:09:27;8.02;;;4.60;;
61642;SDS011;47551;52.506;4.678;2023-08-17T01:09:47;7.25;;;4.32;;
61642;SDS011;47551;52.506;4.678;2023-08-17T01:10:08;7.67;;;4.20;;
61642;SDS011;47551;52.506;4.678;2023-08-17T01:10:31;8.32;;;4.13;;
61642;SDS011;47551;52.506;4.678;2023-08-17T01:12:17;6.95;;;4.40;;
61642;SDS011;47551;52.506;4.678;2023-08-17T01:13:21;7.10;;;4.28;;
61642;SDS011;47551;52.506;4.678;2023-08-17T01:14:44;7.10;;;4.10;;
61642;SDS011;47551;52.506;4.678;2023-08-17T01:15:19;7.47;;;4.25;;
61642;SDS011;47551;52.506;4.678;2023-08-17T01:15:46;9.13;;;4.55;;
61642;SDS011;47551;52.506;4.678;2023-08-17T01:16:12;6.63;;;4.18;;
61642;SDS011;47551;52.506;4.678;2023-08-17T01:16:39;6.97;;;4.20;;
61642;SDS011;47551;52.506;4.678;2023-08-17T01:17:10;8.25;;;4.22;;
61642;SDS011;47551;52.506;4.678;2023-08-17T01:18:23;7.85;;;4.70;;
61642;SDS011;47551;52.506;4.678;2023-08-17T01:18:46;7.95;;;4.50;;
61642;SDS011;47551;52.506;4.678;2023-08-17T01:19:10;8.77;;;4.65;;
61642;SDS011;47551;52.506;4.678;2023-08-17T01:19:37;7.80;;;4.32;;
61642;SDS011;47551;52.506;4.678;2023-08-17T01:19:58;6.97;;;4.35;;
61642;SDS011;47551;52.506;4.678;2023-08-17T01:20:21;6.60;;;4.20;;
61642;SDS011;47551;52.506;4.678;2023-08-17T01:20:43;8.15;;;4.35;;
61642;SDS011;47551;52.506;4.678;2023-08-17T01:21:05;7.60;;;4.80;;
61642;SDS011;47551;52.506;4.678;2023-08-17T01:21:29;6.40;;;4.22;;
61642;SDS011;47551;52.506;4.678;2023-08-17T01:22:00;8.07;;;4.97;;
61642;SDS011;47551;52.506;4.678;2023-08-17T01:22:25;7.05;;;4.38;;
61642;SDS011;47551;52.506;4.678;2023-08-17T01:22:48;7.15;;;4.60;;
61642;SDS011;47551;52.506;4.678;2023-08-17T01:23:12;7.95;;;4.55;;
61642;SDS011;47551;52.506;4.678;2023-08-17T01:23:32;7.17;;;4.53;;
61642;SDS011;47551;52.506;4.678;2023-08-17T01:23:57;8.95;;;4.70;;
61642;SDS011;47551;52.506;4.678;2023-08-17T01:24:21;8.43;;;4.78;;
61642;SDS011;47551;52.506;4.678;2023-08-17T01:24:41;8.57;;;4.53;;
61642;SDS011;47551;52.506;4.678;2023-08-17T01:25:01;9.48;;;4.70;;
61642;SDS011;47551;52.506;4.678;2023-08-17T01:25:22;8.13;;;4.47;;
61642;SDS011;47551;52.506;4.678;2023-08-17T01:25:43;7.95;;;4.43;;
61642;SDS011;47551;52.506;4.678;2023-08-17T01:26:03;8.47;;;4.53;;
61642;SDS011;47551;52.506;4.678;2023-08-17T01:26:23;7.53;;;4.47;;
61642;SDS011;47551;52.506;4.678;2023-08-17T01:26:44;6.73;;;4.53;;
61642;SDS011;47551;52.506;4.678;2023-08-17T01:27:07;7.88;;;4.32;;
61642;SDS011;47551;52.506;4.678;2023-08-17T01:27:33;8.27;;;4.40;;
61642;SDS011;47551;52.506;4.678;2023-08-17T01:27:59;8.65;;;4.80;;
61642;SDS011;47551;52.506;4.678;2023-08-17T01:28:20;8.60;;;4.67;;
61642;SDS011;47551;52.506;4.678;2023-08-17T01:28:41;7.78;;;4.47;;
61642;SDS011;47551;52.506;4.678;2023-08-17T01:29:03;8.55;;;4.55;;
61642;SDS011;47551;52.506;4.678;2023-08-17T01:29:24;8.77;;;4.70;;
61642;SDS011;47551;52.506;4.678;2023-08-17T01:29:45;9.27;;;4.50;;
61642;SDS011;47551;52.506;4.678;2023-08-17T01:30:05;7.85;;;4.70;;
61642;SDS011;47551;52.506;4.678;2023-08-17T01:30:27;8.13;;;4.57;;
61642;SDS011;47551;52.506;4.678;2023-08-17T01:30:55;7.30;;;4.40;;
61642;SDS011;47551;52.506;4.678;2023-08-17T01:31:25;7.70;;;4.60;;
61642;SDS011;47551;52.506;4.678;2023-08-17T01:32:07;7.30;;;4.82;;
61642;SDS011;47551;52.506;4.678;2023-08-17T01:32:45;8.43;;;4.50;;
61642;SDS011;47551;52.506;4.678;2023-08-17T01:33:16;10.95;;;4.90;;
61642;SDS011;47551;52.506;4.678;2023-08-17T01:34:06;8.98;;;4.90;;
61642;SDS011;47551;52.506;4.678;2023-08-17T01:34:39;7.93;;;4.75;;
61642;SDS011;47551;52.506;4.678;2023-08-17T01:35:37;7.43;;;4.75;;
61642;SDS011;47551;52.506;4.678;2023-08-17T01:36:33;7.82;;;4.97;;
61642;SDS011;47551;52.506;4.678;2023-08-17T01:36:58;8.18;;;4.80;;
61642;SDS011;47551;52.506;4.678;2023-08-17T01:37:26;7.93;;;4.65;;
61642;SDS011;47551;52.506;4.678;2023-08-17T01:37:50;8.00;;;4.50;;
61642;SDS011;47551;52.506;4.678;2023-08-17T01:38:14;7.25;;;4.40;;
61642;SDS011;47551;52.506;4.678;2023-08-17T01:38:37;6.88;;;4.55;;
61642;SDS011;47551;52.506;4.678;2023-08-17T01:39:09;8.75;;;4.82;;
61642;SDS011;47551;52.506;4.678;2023-08-17T01:39:32;7.07;;;4.70;;
61642;SDS011;47551;52.506;4.678;2023-08-17T01:39:57;7.97;;;4.90;;
61642;SDS011;47551;52.506;4.678;2023-08-17T01:40:19;7.72;;;4.60;;
61642;SDS011;47551;52.506;4.678;2023-08-17T01:40:40;8.18;;;4.60;;
61642;SDS011;47551;52.506;4.678;2023-08-17T01:41:02;8.82;;;4.60;;
61642;SDS011;47551;52.506;4.678;2023-08-17T01:41:24;9.07;;;4.50;;
61642;SDS011;47551;52.506;4.678;2023-08-17T01:41:46;8.82;;;4.63;;
61642;SDS011;47551;52.506;4.678;2023-08-17T01:42:07;8.02;;;4.70;;
61642;SDS011;47551;52.506;4.678;2023-08-17T01:42:29;7.35;;;4.60;;
61642;SDS011;47551;52.506;4.678;2023-08-17T01:42:52;8.02;;;4.53;;
61642;SDS011;47551;52.506;4.678;2023-08-17T01:43:14;8.48;;;4.97;;
61642;SDS011;47551;52.506;4.678;2023-08-17T01:43:36;8.27;;;4.68;;
61642;SDS011;47551;52.506;4.678;2023-08-17T01:43:57;7.90;;;4.50;;
61642;SDS011;47551;52.506;4.678;2023-08-17T01:44:19;6.88;;;4.90;;
61642;SDS011;47551;52.506;4.678;2023-08-17T01:44:40;7.50;;;4.72;;
61642;SDS011;47551;52.506;4.678;2023-08-17T01:45:01;7.97;;;4.80;;
61642;SDS011;47551;52.506;4.678;2023-08-17T01:45:24;7.30;;;4.70;;
61642;SDS011;47551;52.506;4.678;2023-08-17T01:45:45;8.38;;;4.82;;
61642;SDS011;47551;52.506;4.678;2023-08-17T01:46:06;7.70;;;4.53;;
61642;SDS011;47551;52.506;4.678;2023-08-17T01:46:30;8.40;;;4.60;;
61642;SDS011;47551;52.506;4.678;2023-08-17T01:46:52;8.40;;;4.40;;
61642;SDS011;47551;52.506;4.678;2023-08-17T01:47:16;7.27;;;4.70;;
61642;SDS011;47551;52.506;4.678;2023-08-17T01:47:48;7.65;;;4.80;;
61642;SDS011;47551;52.506;4.678;2023-08-17T01:48:09;8.02;;;4.65;;
61642;SDS011;47551;52.506;4.678;2023-08-17T01:48:32;8.65;;;4.95;;
61642;SDS011;47551;52.506;4.678;2023-08-17T01:48:55;6.85;;;4.68;;
61642;SDS011;47551;52.506;4.678;2023-08-17T01:49:16;7.13;;;4.47;;
61642;SDS011;47551;52.506;4.678;2023-08-17T01:49:36;8.13;;;4.40;;
61642;SDS011;47551;52.506;4.678;2023-08-17T01:49:59;8.30;;;4.55;;
61642;SDS011;47551;52.506;4.678;2023-08-17T01:50:22;9.05;;;4.68;;
61642;SDS011;47551;52.506;4.678;2023-08-17T01:50:43;8.73;;;4.87;;
61642;SDS011;47551;52.506;4.678;2023-08-17T01:51:03;8.30;;;4.83;;
61642;SDS011;47551;52.506;4.678;2023-08-17T01:51:23;7.83;;;4.80;;
61642;SDS011;47551;52.506;4.678;2023-08-17T01:51:45;7.78;;;4.88;;
61642;SDS011;47551;52.506;4.678;2023-08-17T01:52:08;8.93;;;4.75;;
61642;SDS011;47551;52.506;4.678;2023-08-17T01:52:31;7.40;;;4.73;;
61642;SDS011;47551;52.506;4.678;2023-08-17T01:52:54;7.57;;;4.70;;
61642;SDS011;47551;52.506;4.678;2023-08-17T01:53:15;8.98;;;5.10;;
61642;SDS011;47551;52.506;4.678;2023-08-17T01:53:35;7.33;;;4.53;;
61642;SDS011;47551;52.506;4.678;2023-08-17T01:53:55;8.13;;;4.60;;
61642;SDS011;47551;52.506;4.678;2023-08-17T01:54:16;7.70;;;4.90;;
61642;SDS011;47551;52.506;4.678;2023-08-17T01:54:36;7.60;;;4.70;;
61642;SDS011;47551;52.506;4.678;2023-08-17T01:54:56;9.32;;;5.00;;
61642;SDS011;47551;52.506;4.678;2023-08-17T01:55:18;8.70;;;4.90;;
61642;SDS011;47551;52.506;4.678;2023-08-17T01:55:41;8.90;;;4.80;;
61642;SDS011;47551;52.506;4.678;2023-08-17T01:56:01;7.80;;;4.80;;
61642;SDS011;47551;52.506;4.678;2023-08-17T01:56:21;8.43;;;4.88;;
61642;SDS011;47551;52.506;4.678;2023-08-17T01:56:41;7.77;;;4.87;;
61642;SDS011;47551;52.506;4.678;2023-08-17T01:57:02;7.83;;;4.87;;
61642;SDS011;47551;52.506;4.678;2023-08-17T01:57:22;8.73;;;5.10;;
61642;SDS011;47551;52.506;4.678;2023-08-17T01:57:43;7.80;;;4.80;;
61642;SDS011;47551;52.506;4.678;2023-08-17T01:58:03;7.47;;;4.70;;
61642;SDS011;47551;52.506;4.678;2023-08-17T01:58:23;8.40;;;4.97;;
61642;SDS011;47551;52.506;4.678;2023-08-17T01:58:50;9.00;;;4.97;;
61642;SDS011;47551;52.506;4.678;2023-08-17T01:59:10;9.27;;;4.80;;
61642;SDS011;47551;52.506;4.678;2023-08-17T01:59:30;8.47;;;4.70;;
61642;SDS011;47551;52.506;4.678;2023-08-17T01:59:50;8.80;;;4.63;;
61642;SDS011;47551;52.506;4.678;2023-08-17T02:00:11;8.07;;;4.60;;
61642;SDS011;47551;52.506;4.678;2023-08-17T02:00:32;7.95;;;4.88;;
61642;SDS011;47551;52.506;4.678;2023-08-17T02:00:55;8.95;;;4.82;;
61642;SDS011;47551;52.506;4.678;2023-08-17T02:01:15;8.40;;;5.07;;
61642;SDS011;47551;52.506;4.678;2023-08-17T02:01:35;8.20;;;5.27;;
61642;SDS011;47551;52.506;4.678;2023-08-17T02:01:56;7.72;;;5.03;;
61642;SDS011;47551;52.506;4.678;2023-08-17T02:02:16;7.57;;;4.70;;
61642;SDS011;47551;52.506;4.678;2023-08-17T02:02:37;9.00;;;4.78;;
61642;SDS011;47551;52.506;4.678;2023-08-17T02:02:57;7.63;;;4.80;;
61642;SDS011;47551;52.506;4.678;2023-08-17T02:03:17;7.82;;;4.82;;
61642;SDS011;47551;52.506;4.678;2023-08-17T02:03:38;7.83;;;4.80;;
61642;SDS011;47551;52.506;4.678;2023-08-17T02:03:58;7.83;;;4.60;;
61642;SDS011;47551;52.506;4.678;2023-08-17T02:04:22;7.47;;;4.43;;
61642;SDS011;47551;52.506;4.678;2023-08-17T02:04:42;6.80;;;4.53;;
61642;SDS011;47551;52.506;4.678;2023-08-17T02:05:02;7.93;;;4.57;;
61642;SDS011;47551;52.506;4.678;2023-08-17T02:05:23;7.57;;;4.63;;
61642;SDS011;47551;52.506;4.678;2023-08-17T02:05:48;7.82;;;4.90;;
61642;SDS011;47551;52.506;4.678;2023-08-17T02:06:08;8.88;;;5.20;;
61642;SDS011;47551;52.506;4.678;2023-08-17T02:06:31;8.60;;;4.75;;
61642;SDS011;47551;52.506;4.678;2023-08-17T02:06:52;8.37;;;4.60;;
61642;SDS011;47551;52.506;4.678;2023-08-17T02:07:12;8.02;;;4.60;;
61642;SDS011;47551;52.506;4.678;2023-08-17T02:07:32;8.87;;;5.40;;
61642;SDS011;47551;52.506;4.678;2023-08-17T02:07:55;9.07;;;5.00;;
61642;SDS011;47551;52.506;4.678;2023-08-17T02:08:19;9.07;;;4.83;;
61642;SDS011;47551;52.506;4.678;2023-08-17T02:08:44;7.38;;;4.72;;
61642;SDS011;47551;52.506;4.678;2023-08-17T02:09:05;7.75;;;4.63;;
61642;SDS011;47551;52.506;4.678;2023-08-17T02:09:26;8.80;;;5.00;;
61642;SDS011;47551;52.506;4.678;2023-08-17T02:09:46;8.93;;;4.72;;
61642;SDS011;47551;52.506;4.678;2023-08-17T02:10:06;8.23;;;4.50;;
61642;SDS011;47551;52.506;4.678;2023-08-17T02:10:27;7.20;;;4.70;;
61642;SDS011;47551;52.506;4.678;2023-08-17T02:10:47;7.93;;;4.83;;
61642;SDS011;47551;52.506;4.678;2023-08-17T02:11:08;8.23;;;4.68;;
61642;SDS011;47551;52.506;4.678;2023-08-17T02:11:30;7.95;;;4.75;;
61642;SDS011;47551;52.506;4.678;2023-08-17T02:11:50;8.77;;;4.57;;
61642;SDS011;47551;52.506;4.678;2023-08-17T02:12:10;7.33;;;4.47;;
61642;SDS011;47551;52.506;4.678;2023-08-17T02:12:30;7.82;;;4.50;;
61642;SDS011;47551;52.506;4.678;2023-08-17T02:12:51;8.50;;;4.70;;
61642;SDS011;47551;52.506;4.678;2023-08-17T02:13:11;8.27;;;4.70;;
61642;SDS011;47551;52.506;4.678;2023-08-17T02:13:32;8.27;;;4.63;;
61642;SDS011;47551;52.506;4.678;2023-08-17T02:13:53;7.32;;;4.70;;
61642;SDS011;47551;52.506;4.678;2023-08-17T02:14:13;8.13;;;4.60;;
61642;SDS011;47551;52.506;4.678;2023-08-17T02:14:33;8.50;;;4.83;;
61642;SDS011;47551;52.506;4.678;2023-08-17T02:14:53;7.00;;;4.57;;
61642;SDS011;47551;52.506;4.678;2023-08-17T02:15:14;7.20;;;4.73;;
61642;SDS011;47551;52.506;4.678;2023-08-17T02:15:38;7.38;;;4.68;;
61642;SDS011;47551;52.506;4.678;2023-08-17T02:16:04;8.50;;;5.00;;
61642;SDS011;47551;52.506;4.678;2023-08-17T02:16:24;10.15;;;4.97;;
61642;SDS011;47551;52.506;4.678;2023-08-17T02:16:45;11.73;;;4.70;;
61642;SDS011;47551;52.506;4.678;2023-08-17T02:17:05;8.93;;;4.70;;